createdAt,value
2022-09-17T00:01:26.447Z,94907.09
2022-09-17T00:03:56.293Z,94897.47
2022-09-17T00:06:26.696Z,94898.97
2022-09-17T00:08:55.716Z,94903.84
2022-09-17T00:11:25.898Z,94908.38
2022-09-17T00:13:55.187Z,94915.75
2022-09-17T00:16:26.814Z,94917.16
2022-09-17T00:18:55.667Z,94923.50
2022-09-17T00:21:24.662Z,94921.38
2022-09-17T00:23:56.984Z,94920.28
2022-09-17T00:26:25.374Z,94921.41
2022-09-17T00:28:54.668Z,94923.81
2022-09-17T00:31:23.651Z,94923.81
2022-09-17T00:33:52.442Z,94935.88
2022-09-17T00:36:21.320Z,94927.41
2022-09-17T00:38:51.410Z,94922.69
2022-09-17T00:41:21.550Z,94924.81
2022-09-17T00:43:51.259Z,94924.78
2022-09-17T00:46:32.606Z,94924.22
2022-09-17T00:49:03.692Z,94928.44
2022-09-17T00:51:35.857Z,94931.75
2022-09-17T00:54:06.693Z,94934.72
2022-09-17T00:56:38.338Z,94942.34
2022-09-17T00:59:07.306Z,94943.44
2022-09-17T01:01:36.153Z,94943.94
2022-09-17T01:04:04.690Z,94954.16
2022-09-17T01:06:40.411Z,94950.50
2022-09-17T01:09:25.271Z,94947.88
2022-09-17T01:12:11.025Z,94953.31
2022-09-17T01:14:57.922Z,94950.41
2022-09-17T01:17:32.405Z,94958.94
2022-09-17T01:20:33.059Z,94948.81
2022-09-17T01:23:22.488Z,94959.25
2022-09-17T01:26:04.153Z,94957.47
2022-09-17T01:28:43.394Z,94965.84
2022-09-17T01:31:36.042Z,94962.63
2022-09-17T01:34:14.495Z,94959.91
2022-09-17T01:37:01.202Z,94969.56
2022-09-17T01:39:38.364Z,94967.63
2022-09-17T01:42:14.712Z,94971.88
2022-09-17T01:44:52.055Z,94970.47
2022-09-17T01:47:24.474Z,94970.00
2022-09-17T01:49:56.794Z,94970.47
2022-09-17T01:52:27.225Z,94963.41
2022-09-17T01:55:02.328Z,94965.16
2022-09-17T01:57:34.769Z,94961.69
2022-09-17T02:00:06.402Z,94966.69
2022-09-17T02:02:47.684Z,94962.44
2022-09-17T02:05:19.848Z,94966.56
2022-09-17T02:07:54.080Z,94966.34
2022-09-17T02:10:27.044Z,94978.91
2022-09-17T02:12:58.991Z,94976.03
2022-09-17T02:15:32.344Z,94970.84
2022-09-17T02:18:07.683Z,94971.38
2022-09-17T02:20:41.877Z,94970.88
2022-09-17T02:23:15.579Z,94980.91
2022-09-17T02:25:48.468Z,94983.66
2022-09-17T02:28:22.926Z,94977.97
2022-09-17T02:30:50.998Z,94992.09
2022-09-17T02:33:21.480Z,94995.69
2022-09-17T02:35:49.451Z,94987.66
2022-09-17T02:38:23.430Z,94998.59
2022-09-17T02:41:00.145Z,94989.50
2022-09-17T02:43:37.848Z,94990.59
2022-09-17T02:46:23.322Z,94989.94
2022-09-17T02:49:21.529Z,94982.63
2022-09-17T02:51:58.183Z,94964.91
2022-09-17T02:54:30.812Z,94956.09
2022-09-17T02:57:09.449Z,94961.09
2022-09-17T02:59:45.002Z,94963.72
2022-09-17T03:02:20.622Z,94967.69
2022-09-17T03:04:52.373Z,94958.56
2022-09-17T03:07:23.045Z,94969.19
2022-09-17T03:09:51.139Z,94961.56
2022-09-17T03:12:19.254Z,94963.81
2022-09-17T03:14:47.180Z,94967.72
2022-09-17T03:17:15.165Z,94964.06
2022-09-17T03:19:43.093Z,94976.63
2022-09-17T03:22:12.590Z,94980.63
2022-09-17T03:24:40.724Z,94983.81
2022-09-17T03:27:08.667Z,94977.66
2022-09-17T03:29:36.605Z,94990.19
2022-09-17T03:32:05.464Z,94992.00
2022-09-17T03:34:33.368Z,94987.94
2022-09-17T03:37:01.316Z,94983.81
2022-09-17T03:39:31.374Z,94996.84
2022-09-17T03:41:59.307Z,94986.56
2022-09-17T03:44:27.227Z,94998.34
2022-09-17T03:46:55.241Z,94991.81
2022-09-17T03:49:24.003Z,94991.28
2022-09-17T03:51:52.264Z,94994.50
2022-09-17T03:54:20.164Z,94998.94
2022-09-17T03:56:49.507Z,94997.84
2022-09-17T03:59:17.674Z,95005.97
2022-09-17T04:01:45.852Z,94997.59
2022-09-17T04:04:13.830Z,95006.25
2022-09-17T04:06:41.803Z,95014.38
2022-09-17T04:09:09.739Z,95009.13
2022-09-17T04:11:37.669Z,95013.56
2022-09-17T04:14:06.975Z,95015.09
2022-09-17T04:16:35.186Z,95016.72
2022-09-17T04:19:03.663Z,95013.56
2022-09-17T04:21:31.590Z,95012.47
2022-09-17T04:24:19.244Z,95018.88
2022-09-17T04:26:47.242Z,95020.81
2022-09-17T04:29:16.576Z,95025.00
2022-09-17T04:31:44.518Z,95020.72
2022-09-17T04:34:12.479Z,95032.16
2022-09-17T04:36:40.483Z,95032.16
2022-09-17T04:39:08.553Z,95028.28
2022-09-17T04:41:36.455Z,95037.88
2022-09-17T04:44:04.592Z,95034.50
2022-09-17T04:46:33.929Z,95040.88
2022-09-17T04:49:02.274Z,95042.38
2022-09-17T04:51:30.239Z,95041.03
2022-09-17T04:54:00.891Z,95043.81
2022-09-17T04:56:28.858Z,95048.97
2022-09-17T04:58:56.846Z,95054.03
2022-09-17T05:01:25.043Z,95070.69
2022-09-17T05:03:54.436Z,95067.81
2022-09-17T05:06:22.417Z,95068.84
2022-09-17T05:08:50.752Z,95080.06
2022-09-17T05:11:18.919Z,95072.28
2022-09-17T05:13:46.928Z,95069.13
2022-09-17T05:16:14.936Z,95071.47
2022-09-17T05:18:42.951Z,95069.88
2022-09-17T05:21:12.313Z,95070.81
2022-09-17T05:23:40.292Z,95066.22
2022-09-17T05:26:08.262Z,95067.13
2022-09-17T05:28:36.609Z,95066.13
2022-09-17T05:31:05.088Z,95066.59
2022-09-17T05:33:33.275Z,95079.03
2022-09-17T05:36:01.279Z,95086.41
2022-09-17T05:38:30.671Z,95084.09
2022-09-17T05:40:58.572Z,95096.53
2022-09-17T05:43:26.537Z,95097.97
2022-09-17T05:45:54.935Z,95104.19
2022-09-17T05:48:22.995Z,95108.97
2022-09-17T05:50:50.955Z,95108.75
2022-09-17T05:53:19.406Z,95110.81
2022-09-17T05:55:48.751Z,95120.81
2022-09-17T05:58:18.450Z,95110.06
2022-09-17T06:00:49.015Z,95114.84
2022-09-17T06:03:19.785Z,95115.69
2022-09-17T06:05:55.347Z,95106.91
2022-09-17T06:08:23.900Z,95117.44
2022-09-17T06:10:53.321Z,95122.34
2022-09-17T06:13:22.269Z,95123.44
2022-09-17T06:15:54.569Z,95122.50
2022-09-17T06:18:22.707Z,95120.50
2022-09-17T06:20:55.368Z,95116.28
2022-09-17T06:23:24.169Z,95110.72
2022-09-17T06:25:55.922Z,95114.22
2022-09-17T06:28:24.114Z,95120.75
2022-09-17T06:30:54.432Z,95132.41
2022-09-17T06:33:22.789Z,95127.91
2022-09-17T06:35:57.052Z,95136.31
2022-09-17T06:38:25.031Z,95133.28
2022-09-17T06:40:54.991Z,95129.38
2022-09-17T06:43:24.098Z,95140.66
2022-09-17T06:45:55.372Z,95137.63
2022-09-17T06:48:24.187Z,95141.28
2022-09-17T06:50:54.361Z,95141.72
2022-09-17T06:53:22.853Z,95142.13
2022-09-17T06:55:51.391Z,95147.03
2022-09-17T06:58:20.724Z,95139.81
2022-09-17T07:00:48.754Z,95140.41
2022-09-17T07:03:21.170Z,95141.75
2022-09-17T07:05:51.016Z,95140.19
2022-09-17T07:08:18.993Z,95140.03
2022-09-17T07:10:46.911Z,95151.31
2022-09-17T07:13:14.850Z,95150.50
2022-09-17T07:15:44.263Z,95146.97
2022-09-17T07:18:12.951Z,95151.00
2022-09-17T07:20:40.864Z,95149.72
2022-09-17T07:23:08.779Z,95148.78
2022-09-17T07:25:36.698Z,95154.66
2022-09-17T07:28:04.919Z,95151.78
2022-09-17T07:30:32.897Z,95147.34
2022-09-17T07:33:03.727Z,95149.25
2022-09-17T07:35:31.647Z,95151.00
2022-09-17T07:37:59.559Z,95144.47
2022-09-17T07:40:27.845Z,95151.47
2022-09-17T07:42:58.701Z,95150.63
2022-09-17T07:45:26.607Z,95144.31
2022-09-17T07:47:54.550Z,95148.44
2022-09-17T07:50:23.909Z,95145.66
2022-09-17T07:52:51.848Z,95153.22
2022-09-17T07:55:20.196Z,95157.00
2022-09-17T07:57:52.855Z,95170.97
2022-09-17T08:00:21.100Z,95169.38
2022-09-17T08:02:54.459Z,95176.56
2022-09-17T08:05:24.593Z,95173.09
2022-09-17T08:07:52.999Z,95175.28
2022-09-17T08:10:22.005Z,95181.50
2022-09-17T08:12:50.129Z,95185.66
2022-09-17T08:15:19.400Z,95178.63
2022-09-17T08:17:47.740Z,95183.94
2022-09-17T08:20:16.730Z,95181.03
2022-09-17T08:22:50.017Z,95190.72
2022-09-17T08:25:18.508Z,95180.75
2022-09-17T08:27:46.609Z,95179.41
2022-09-17T08:30:14.566Z,95186.34
2022-09-17T08:32:42.502Z,95177.56
2022-09-17T08:35:11.882Z,95177.56
2022-09-17T08:37:39.806Z,95181.34
2022-09-17T08:40:14.707Z,95186.78
2022-09-17T08:42:54.175Z,95185.31
2022-09-17T08:45:22.624Z,95185.25
2022-09-17T08:47:51.150Z,95188.28
2022-09-17T08:50:28.825Z,95187.34
2022-09-17T08:53:17.138Z,95192.09
2022-09-17T08:55:50.998Z,95191.91
2022-09-17T08:58:33.973Z,95191.72
2022-09-17T09:01:13.162Z,95194.38
2022-09-17T09:03:55.329Z,95195.88
2022-09-17T09:06:28.424Z,95192.22
2022-09-17T09:09:01.544Z,95197.56
2022-09-17T09:11:32.351Z,95194.94
2022-09-17T09:14:06.794Z,95193.81
2022-09-17T09:16:39.496Z,95193.38
2022-09-17T09:19:22.079Z,95203.78
2022-09-17T09:22:03.501Z,95197.69
2022-09-17T09:24:40.857Z,95202.66
2022-09-17T09:27:18.962Z,95209.59
2022-09-17T09:30:02.078Z,95214.00
2022-09-17T09:32:44.958Z,95206.31
2022-09-17T09:35:19.944Z,95210.81
2022-09-17T09:37:58.772Z,95209.56
2022-09-17T09:40:34.393Z,95206.00
2022-09-17T09:43:13.053Z,95202.97
2022-09-17T09:45:57.094Z,95204.00
2022-09-17T09:48:35.173Z,95203.59
2022-09-17T09:51:15.929Z,95201.72
2022-09-17T09:54:01.987Z,95208.19
2022-09-17T09:56:43.978Z,95209.38
2022-09-17T09:59:14.701Z,95212.06
2022-09-17T10:01:45.204Z,95210.00
2022-09-17T10:04:21.754Z,95216.63
2022-09-17T10:06:52.793Z,95216.31
2022-09-17T10:09:22.640Z,95200.66
2022-09-17T10:12:06.378Z,95211.88
2022-09-17T10:14:37.023Z,95221.34
2022-09-17T10:17:20.985Z,95218.97
2022-09-17T10:20:17.257Z,95215.31
2022-09-17T10:22:48.798Z,95217.66
2022-09-17T10:25:29.692Z,95214.00
2022-09-17T10:27:59.638Z,95210.31
2022-09-17T10:30:28.205Z,95208.25
2022-09-17T10:33:17.492Z,95212.94
2022-09-17T10:35:58.644Z,95221.38
2022-09-17T10:38:35.521Z,95210.94
2022-09-17T10:41:13.464Z,95202.81
2022-09-17T10:43:42.527Z,95219.50
2022-09-17T10:46:15.124Z,95228.25
2022-09-17T10:48:45.920Z,95211.50
2022-09-17T10:51:25.293Z,95213.88
2022-09-17T10:54:26.405Z,95206.63
2022-09-17T10:56:58.334Z,95215.63
2022-09-17T10:59:53.856Z,95220.75
2022-09-17T11:02:44.674Z,95210.34
2022-09-17T11:05:35.498Z,95204.28
2022-09-17T11:08:12.945Z,95217.28
2022-09-17T11:10:50.971Z,95217.72
2022-09-17T11:13:29.158Z,95208.25
2022-09-17T11:16:21.021Z,95208.31
2022-09-17T11:18:57.078Z,95212.38
2022-09-17T11:21:45.469Z,95208.72
2022-09-17T11:24:49.990Z,95202.34
2022-09-17T11:27:35.378Z,95214.41
2022-09-17T11:30:09.583Z,95220.69
2022-09-17T11:32:53.937Z,95217.53
2022-09-17T11:35:25.801Z,95215.63
2022-09-17T11:38:00.106Z,95209.63
2022-09-17T11:40:36.872Z,95217.81
2022-09-17T11:43:15.415Z,95223.53
2022-09-17T11:45:57.239Z,95219.41
2022-09-17T11:48:32.950Z,95214.03
2022-09-17T11:51:07.473Z,95215.22
2022-09-17T11:53:40.816Z,95215.28
2022-09-17T11:56:18.905Z,95221.69
2022-09-17T11:58:51.632Z,95220.59
2022-09-17T12:01:29.035Z,95215.75
2022-09-17T12:04:00.497Z,95217.91
2022-09-17T12:06:37.573Z,95204.25
2022-09-17T12:09:13.747Z,95198.53
2022-09-17T12:11:49.538Z,95192.22
2022-09-17T12:14:23.325Z,95185.91
2022-09-17T12:16:56.641Z,95203.59
2022-09-17T12:19:31.997Z,95202.22
2022-09-17T12:22:07.137Z,95193.03
2022-09-17T12:24:35.186Z,95201.84
2022-09-17T12:27:14.484Z,95204.78
2022-09-17T12:30:16.457Z,95202.81
2022-09-17T12:32:58.392Z,95189.88
2022-09-17T12:39:15.806Z,95181.28
2022-09-17T12:41:53.627Z,95186.47
2022-09-17T12:44:46.722Z,95179.13
2022-09-17T12:47:45.529Z,95188.31
2022-09-17T12:50:22.945Z,95191.06
2022-09-17T12:53:04.075Z,95184.09
2022-09-17T12:55:41.278Z,95170.94
2022-09-17T12:58:22.237Z,95183.91
2022-09-17T13:00:56.683Z,95175.44
2022-09-17T13:03:29.709Z,95176.28
2022-09-17T13:06:26.133Z,95181.31
2022-09-17T13:09:13.375Z,95190.84
2022-09-17T13:12:08.108Z,95191.41
2022-09-17T13:14:57.828Z,95191.91
2022-09-17T13:17:35.963Z,95183.88
2022-09-17T13:20:15.873Z,95183.91
2022-09-17T13:22:47.768Z,95188.72
2022-09-17T13:25:18.840Z,95201.44
2022-09-17T13:27:47.850Z,95200.63
2022-09-17T13:30:17.259Z,95200.09
2022-09-17T13:32:55.577Z,95196.34
2022-09-17T13:35:52.269Z,95201.91
2022-09-17T13:38:23.880Z,95213.06
2022-09-17T13:40:53.265Z,95202.97
2022-09-17T13:43:27.130Z,95207.25
2022-09-17T13:46:15.545Z,95211.97
2022-09-17T13:48:55.708Z,95213.03
2022-09-17T13:52:00.224Z,95208.25
2022-09-17T13:54:38.821Z,95212.50
2022-09-17T13:57:16.790Z,95229.94
2022-09-17T13:59:56.789Z,95215.09
2022-09-17T14:02:39.673Z,95217.81
2022-09-17T14:05:35.661Z,95213.31
2022-09-17T14:08:31.216Z,95214.06
2022-09-17T14:11:01.838Z,95223.00
2022-09-17T14:13:45.413Z,95220.72
2022-09-17T14:16:47.414Z,95213.03
2022-09-17T14:19:30.602Z,95210.41
2022-09-17T14:22:03.378Z,95215.16
2022-09-17T14:24:37.518Z,95209.88
2022-09-17T14:27:43.620Z,95209.34
2022-09-17T14:30:19.478Z,95207.22
2022-09-17T14:32:59.203Z,95208.75
2022-09-17T14:35:32.656Z,95206.59
2022-09-17T14:38:09.060Z,95200.16
2022-09-17T14:40:42.078Z,95204.94
2022-09-17T14:43:19.745Z,95201.13
2022-09-17T14:45:51.415Z,95196.34
2022-09-17T14:48:30.839Z,95195.72
2022-09-17T14:51:29.573Z,95208.00
2022-09-17T14:54:17.523Z,95212.06
2022-09-17T14:56:52.310Z,95203.75
2022-09-17T14:59:30.457Z,95200.06
2022-09-17T15:01:58.621Z,95207.91
2022-09-17T15:04:28.096Z,95205.63
2022-09-17T15:07:08.234Z,95203.06
2022-09-17T15:09:37.683Z,95202.34
2022-09-17T15:12:07.721Z,95213.16
2022-09-17T15:14:39.840Z,95201.09
2022-09-17T15:17:13.483Z,95206.84
2022-09-17T15:19:44.850Z,95203.75
2022-09-17T15:22:16.840Z,95206.44
2022-09-17T15:24:53.078Z,95211.97
2022-09-17T15:27:25.507Z,95209.97
2022-09-17T15:29:57.987Z,95221.13
2022-09-17T15:32:26.382Z,95227.16
2022-09-17T15:35:23.546Z,95220.34
2022-09-17T15:38:18.877Z,95220.34
2022-09-17T15:40:42.935Z,95220.53
2022-09-17T15:43:18.632Z,95224.53
2022-09-17T15:45:46.575Z,95216.25
2022-09-17T15:48:34.342Z,95219.28
2022-09-17T15:51:03.712Z,95230.84
2022-09-17T15:53:32.758Z,95224.94
2022-09-17T15:56:06.880Z,95222.09
2022-09-17T15:58:39.599Z,95217.03
2022-09-17T16:01:53.092Z,95226.41
2022-09-17T16:04:24.407Z,95220.50
2022-09-17T16:07:11.345Z,95215.41
2022-09-17T16:09:42.548Z,95225.06
2022-09-17T16:12:17.044Z,95223.59
2022-09-17T16:14:49.958Z,95224.97
2022-09-17T16:17:33.120Z,95230.56
2022-09-17T16:20:06.114Z,95231.63
2022-09-17T16:22:34.885Z,95235.25
2022-09-17T16:25:03.011Z,95233.38
2022-09-17T16:27:36.790Z,95230.78
2022-09-17T16:30:09.370Z,95221.75
2022-09-17T16:32:37.358Z,95235.13
2022-09-17T16:35:06.270Z,95220.19
2022-09-17T16:37:34.212Z,95227.91
2022-09-17T16:40:02.788Z,95231.34
2022-09-17T16:42:33.715Z,95238.06
2022-09-17T16:45:03.602Z,95238.56
2022-09-17T16:47:37.132Z,95233.19
2022-09-17T16:50:07.267Z,95235.84
2022-09-17T16:52:35.429Z,95239.03
2022-09-17T16:55:04.989Z,95243.91
2022-09-17T16:57:34.824Z,95243.84
2022-09-17T17:00:03.768Z,95248.09
2022-09-17T17:02:31.784Z,95250.72
2022-09-17T17:04:59.762Z,95258.81
2022-09-17T17:07:27.762Z,95251.09
2022-09-17T17:09:55.655Z,95247.59
2022-09-17T17:12:23.613Z,95260.72
2022-09-17T17:14:53.646Z,95268.47
2022-09-17T17:17:22.362Z,95269.78
2022-09-17T17:19:50.296Z,95276.38
2022-09-17T17:22:18.222Z,95276.94
2022-09-17T17:24:46.177Z,95278.00
2022-09-17T17:27:14.576Z,95279.56
2022-09-17T17:29:42.642Z,95274.31
2022-09-17T17:32:11.968Z,95278.56
2022-09-17T17:34:39.899Z,95281.66
2022-09-17T17:37:07.853Z,95280.47
2022-09-17T17:39:35.782Z,95285.22
2022-09-17T17:42:03.743Z,95278.81
2022-09-17T17:44:31.668Z,95288.25
2022-09-17T17:46:59.698Z,95285.25
2022-09-17T17:49:29.039Z,95294.78
2022-09-17T17:51:56.957Z,95300.03
2022-09-17T17:54:25.274Z,95306.16
2022-09-17T17:56:53.197Z,95308.31
2022-09-17T17:59:21.166Z,95312.50
2022-09-17T18:01:49.154Z,95312.91
2022-09-17T18:04:17.169Z,95313.75
2022-09-17T18:06:48.150Z,95316.41
2022-09-17T18:09:16.226Z,95321.47
2022-09-17T18:11:44.226Z,95329.44
2022-09-17T18:14:13.590Z,95328.81
2022-09-17T18:16:41.821Z,95331.38
2022-09-17T18:19:11.264Z,95336.63
2022-09-17T18:21:39.272Z,95342.94
2022-09-17T18:24:08.587Z,95339.09
2022-09-17T18:26:36.546Z,95336.41
2022-09-17T18:29:07.910Z,95339.72
2022-09-17T18:31:37.903Z,95343.03
2022-09-17T18:34:07.940Z,95344.00
2022-09-17T18:36:37.727Z,95352.69
2022-09-17T18:39:44.531Z,95356.94
2022-09-17T18:41:56.657Z,95366.66
2022-09-17T18:44:25.181Z,95362.56
2022-09-17T18:46:53.146Z,95377.16
2022-09-17T18:49:21.933Z,95363.63
2022-09-17T18:51:49.906Z,95366.34
2022-09-17T18:54:17.936Z,95362.81
2022-09-17T18:56:45.879Z,95364.75
2022-09-17T18:59:15.158Z,95368.41
2022-09-17T19:01:43.385Z,95363.94
2022-09-17T19:04:11.481Z,95371.06
2022-09-17T19:06:39.531Z,95364.97
2022-09-17T19:09:07.479Z,95363.34
2022-09-17T19:11:36.567Z,95378.28
2022-09-17T19:14:04.935Z,95372.81
2022-09-17T19:16:34.337Z,95382.84
2022-09-17T19:19:02.359Z,95378.41
2022-09-17T19:21:30.347Z,95375.34
2022-09-17T19:23:58.308Z,95386.25
2022-09-17T19:26:27.918Z,95382.66
2022-09-17T19:28:58.695Z,95375.69
2022-09-17T19:31:27.876Z,95379.78
2022-09-17T19:33:58.509Z,95381.19
2022-09-17T19:36:26.728Z,95378.75
2022-09-17T19:38:55.341Z,95386.78
2022-09-17T19:41:24.226Z,95383.91
2022-09-17T19:43:52.976Z,95383.91
2022-09-17T19:46:22.644Z,95380.69
2022-09-17T19:48:54.168Z,95388.69
2022-09-17T19:51:24.982Z,95386.63
2022-09-17T19:53:53.827Z,95382.03
2022-09-17T19:56:23.585Z,95381.28
2022-09-17T19:58:52.292Z,95382.31
2022-09-17T20:01:20.984Z,95382.38
2022-09-17T20:03:53.210Z,95383.72
2022-09-17T20:06:24.050Z,95381.28
2022-09-17T20:08:53.922Z,95388.00
2022-09-17T20:11:24.307Z,95388.22
2022-09-17T20:13:58.051Z,95391.75
2022-09-17T20:16:26.709Z,95385.84
2022-09-17T20:18:54.877Z,95387.22
2022-09-17T20:21:27.844Z,95387.91
2022-09-17T20:23:56.416Z,95390.16
2022-09-17T20:26:24.997Z,95393.22
2022-09-17T20:28:53.539Z,95390.16
2022-09-17T20:31:23.889Z,95391.97
2022-09-17T20:33:54.405Z,95395.47
2022-09-17T20:36:26.226Z,95395.88
2022-09-17T20:39:11.467Z,95396.78
2022-09-17T20:41:42.386Z,95397.44
2022-09-17T20:44:10.366Z,95398.69
2022-09-17T20:46:38.289Z,95401.97
2022-09-17T20:49:06.283Z,95408.81
2022-09-17T20:51:36.110Z,95397.06
2022-09-17T20:54:04.432Z,95398.84
2022-09-17T20:56:34.777Z,95405.47
2022-09-17T20:59:09.433Z,95398.84
2022-09-17T21:01:38.013Z,95400.00
2022-09-17T21:04:08.682Z,95405.69
2022-09-17T21:06:41.077Z,95411.97
2022-09-17T21:09:10.366Z,95406.97
2022-09-17T21:11:38.719Z,95406.41
2022-09-17T21:14:06.993Z,95416.88
2022-09-17T21:16:34.948Z,95409.69
2022-09-17T21:19:06.505Z,95406.72
2022-09-17T21:21:35.228Z,95409.13
2022-09-17T21:24:06.974Z,95410.72
2022-09-17T21:26:35.709Z,95415.84
2022-09-17T21:29:03.945Z,95412.31
2022-09-17T21:31:36.869Z,95420.97
2022-09-17T21:34:07.089Z,95412.75
2022-09-17T21:36:37.195Z,95417.19
2022-09-17T21:39:08.036Z,95415.28
2022-09-17T21:41:41.389Z,95422.56
2022-09-17T21:44:11.480Z,95418.69
2022-09-17T21:46:39.618Z,95412.88
2022-09-17T21:49:07.950Z,95412.66
2022-09-17T21:51:37.813Z,95421.41
2022-09-17T21:54:08.778Z,95418.91
2022-09-17T21:56:37.387Z,95418.13
2022-09-17T21:59:07.204Z,95419.72
2022-09-17T22:01:39.951Z,95412.28
2022-09-17T22:04:09.295Z,95419.31
2022-09-17T22:06:38.171Z,95421.81
2022-09-17T22:09:09.053Z,95427.19
2022-09-17T22:11:38.393Z,95415.13
2022-09-17T22:14:09.224Z,95417.28
2022-09-17T22:16:39.058Z,95421.50
2022-09-17T22:19:08.702Z,95415.00
2022-09-17T22:21:38.773Z,95419.31
2022-09-17T22:24:09.177Z,95416.59
2022-09-17T22:26:40.494Z,95417.50
2022-09-17T22:29:11.380Z,95419.78
2022-09-17T22:31:39.638Z,95405.78
2022-09-17T22:34:09.155Z,95406.81
2022-09-17T22:36:37.851Z,95410.69
2022-09-17T22:39:06.796Z,95406.16
2022-09-17T22:41:37.782Z,95415.47
2022-09-17T22:44:08.452Z,95418.66
2022-09-17T22:46:39.413Z,95414.47
2022-09-17T22:49:09.430Z,95409.41
2022-09-17T22:51:37.870Z,95402.97
2022-09-17T22:54:07.320Z,95406.13
2022-09-17T22:56:37.202Z,95410.13
2022-09-17T22:59:05.665Z,95407.06
2022-09-17T23:01:36.297Z,95406.16
2022-09-17T23:04:05.783Z,95402.50
2022-09-17T23:06:35.131Z,95406.25
2022-09-17T23:09:03.968Z,95404.56
2022-09-17T23:11:33.907Z,95405.00
2022-09-17T23:14:05.169Z,95404.09
2022-09-17T23:16:35.508Z,95409.09
2022-09-17T23:19:03.618Z,95405.47
2022-09-17T23:21:31.536Z,95405.56
2022-09-17T23:23:59.572Z,95404.66
2022-09-17T23:26:28.344Z,95407.28
2022-09-17T23:28:58.942Z,95408.00
2022-09-17T23:31:31.152Z,95405.56
2022-09-17T23:34:00.277Z,95402.97
2022-09-17T23:36:30.144Z,95408.53
2022-09-17T23:38:59.830Z,95414.69
2022-09-17T23:41:30.141Z,95412.75
2022-09-17T23:44:00.292Z,95400.56
2022-09-17T23:46:31.572Z,95410.69
2022-09-17T23:48:59.871Z,95399.28
2022-09-17T23:51:30.732Z,95398.53
2022-09-17T23:53:59.794Z,95394.63
2022-09-17T23:56:29.424Z,95397.88
2022-09-17T23:59:00.697Z,95396.56
